createdAt,value
2019-03-22T00:03:21.131Z,59.83
2019-03-22T00:08:17.163Z,63.07
2019-03-22T00:13:13.086Z,64.20
2019-03-22T00:18:09.028Z,60.57
2019-03-22T00:23:04.946Z,66.63
2019-03-22T00:28:00.917Z,63.57
2019-03-22T00:32:56.899Z,65.67
2019-03-22T00:37:52.817Z,63.40
2019-03-22T00:42:48.747Z,61.43
2019-03-22T00:47:44.673Z,68.17
2019-03-22T00:52:40.598Z,66.47
2019-03-22T00:57:36.623Z,66.17
2019-03-22T01:02:32.550Z,65.47
2019-03-22T01:07:28.472Z,70.93
2019-03-22T01:12:24.391Z,64.30
2019-03-22T01:17:20.312Z,64.77
2019-03-22T01:22:16.307Z,62.93
2019-03-22T01:27:12.323Z,62.00
2019-03-22T01:32:08.257Z,62.27
2019-03-22T01:37:04.230Z,63.90
2019-03-22T01:42:00.167Z,63.10
2019-03-22T01:46:56.106Z,57.70
2019-03-22T01:51:52.541Z,58.23
2019-03-22T01:56:48.495Z,57.30
2019-03-22T02:01:44.422Z,59.00
2019-03-22T02:06:40.340Z,54.67
2019-03-22T02:11:36.259Z,57.43
2019-03-22T02:16:32.182Z,58.60
2019-03-22T02:21:29.548Z,60.37
2019-03-22T02:26:25.756Z,59.17
2019-03-22T02:31:21.676Z,57.27
2019-03-22T02:36:17.641Z,55.53
2019-03-22T02:41:13.565Z,56.13
2019-03-22T02:46:09.520Z,56.20
2019-03-22T02:51:05.456Z,55.73
2019-03-22T02:56:01.608Z,55.30
2019-03-22T03:00:57.828Z,58.37
2019-03-22T03:05:53.799Z,57.97
2019-03-22T03:10:49.934Z,60.27
2019-03-22T03:15:45.860Z,57.93
2019-03-22T03:20:41.813Z,62.70
2019-03-22T03:25:37.854Z,61.57
2019-03-22T03:30:33.781Z,61.30
2019-03-22T03:35:29.711Z,62.13
2019-03-22T03:40:25.640Z,64.00
2019-03-22T03:45:35.633Z,60.17
2019-03-22T03:50:31.669Z,60.87
2019-03-22T03:55:27.687Z,66.77
2019-03-22T04:00:23.671Z,61.60
2019-03-22T04:05:20.634Z,61.50
2019-03-22T04:10:16.645Z,67.90
2019-03-22T04:15:12.799Z,67.50
2019-03-22T04:20:08.938Z,69.87
2019-03-22T04:25:05.886Z,65.90
2019-03-22T04:30:02.254Z,64.67
2019-03-22T04:34:58.181Z,63.63
2019-03-22T04:39:54.330Z,63.10
2019-03-22T04:44:50.255Z,65.57
2019-03-22T04:49:47.206Z,69.63
2019-03-22T04:54:45.602Z,67.37
2019-03-22T04:59:42.217Z,63.77
2019-03-22T05:04:38.625Z,57.43
2019-03-22T05:09:35.154Z,58.97
2019-03-22T05:14:32.576Z,61.53
2019-03-22T05:19:50.272Z,59.10
2019-03-22T05:24:47.297Z,52.03
2019-03-22T05:29:45.113Z,55.27
2019-03-22T05:34:41.218Z,52.90
2019-03-22T05:39:37.193Z,53.27
2019-03-22T05:44:33.182Z,55.87
2019-03-22T05:49:36.580Z,55.23
2019-03-22T05:54:33.866Z,57.40
2019-03-22T05:59:41.847Z,57.40
2019-03-22T06:04:31.025Z,54.67
2019-03-22T06:09:27.138Z,56.70
2019-03-22T06:14:23.239Z,52.37
2019-03-22T06:19:19.168Z,52.33
2019-03-22T06:24:17.144Z,53.23
2019-03-22T06:29:13.177Z,56.00
2019-03-22T06:34:09.104Z,54.07
2019-03-22T06:39:06.227Z,53.27
2019-03-22T06:44:02.158Z,53.40
2019-03-22T06:48:58.070Z,52.87
2019-03-22T06:53:53.999Z,53.50
2019-03-22T06:58:49.954Z,56.67
2019-03-22T07:03:45.872Z,55.13
2019-03-22T07:08:43.601Z,54.10
2019-03-22T07:13:39.606Z,53.07
2019-03-22T07:18:35.559Z,50.33
2019-03-22T07:23:33.283Z,54.00
2019-03-22T07:28:29.440Z,52.37
2019-03-22T07:33:27.770Z,50.83
2019-03-22T07:38:23.793Z,45.60
2019-03-22T07:43:19.711Z,48.20
2019-03-22T07:48:15.633Z,46.00
2019-03-22T07:53:11.640Z,43.67
2019-03-22T07:58:07.623Z,43.53
2019-03-22T08:03:03.631Z,41.63
2019-03-22T08:07:59.550Z,41.60
2019-03-22T08:12:55.475Z,43.03
2019-03-22T08:17:51.817Z,40.50
2019-03-22T08:22:47.925Z,41.97
2019-03-22T08:27:43.846Z,37.10
2019-03-22T08:32:39.865Z,40.13
2019-03-22T08:37:35.790Z,36.60
2019-03-22T08:42:31.759Z,33.30
2019-03-22T08:47:33.907Z,31.20
2019-03-22T08:52:26.243Z,31.40
2019-03-22T08:57:24.805Z,29.50
2019-03-22T09:02:20.079Z,24.10
2019-03-22T09:07:16.009Z,28.10
2019-03-22T09:12:12.051Z,14.73
2019-03-22T09:17:07.978Z,12.27
2019-03-22T09:22:03.890Z,15.30
2019-03-22T09:26:59.903Z,16.80
2019-03-22T09:31:55.790Z,20.37
2019-03-22T09:36:51.796Z,19.07
2019-03-22T09:41:47.724Z,17.23
2019-03-22T09:46:43.660Z,19.20
2019-03-22T09:51:39.566Z,15.77
2019-03-22T09:56:46.339Z,14.13
2019-03-22T10:01:33.350Z,13.57
2019-03-22T10:06:29.309Z,14.40
2019-03-22T10:11:25.208Z,13.87
2019-03-22T10:16:21.177Z,14.73
2019-03-22T10:21:22.214Z,13.90
2019-03-22T10:26:14.892Z,12.83
2019-03-22T10:31:10.825Z,12.90
2019-03-22T10:36:06.731Z,13.07
2019-03-22T10:41:02.658Z,10.73
2019-03-22T10:45:59.552Z,11.00
2019-03-22T10:50:55.568Z,12.40
2019-03-22T10:55:51.635Z,11.10
2019-03-22T11:00:47.556Z,10.10
2019-03-22T11:05:43.584Z,11.80
2019-03-22T11:10:39.505Z,10.70
2019-03-22T11:15:35.428Z,9.73
2019-03-22T11:20:31.355Z,10.43
2019-03-22T11:25:27.274Z,8.90
2019-03-22T11:30:23.193Z,11.53
2019-03-22T11:35:19.120Z,11.70
2019-03-22T11:40:16.449Z,11.10
2019-03-22T11:45:17.792Z,9.17
2019-03-22T11:50:13.943Z,9.73
2019-03-22T11:55:11.767Z,8.60
2019-03-22T12:00:17.691Z,8.10
2019-03-22T12:05:14.215Z,7.43
2019-03-22T12:10:12.845Z,6.10
2019-03-22T12:15:11.068Z,5.73
2019-03-22T12:20:10.292Z,7.47
2019-03-22T12:25:08.138Z,6.53
2019-03-22T12:30:10.308Z,7.37
2019-03-22T12:35:06.729Z,6.47
2019-03-22T12:40:07.862Z,6.30
2019-03-22T12:45:10.210Z,6.63
2019-03-22T12:50:06.528Z,6.80
2019-03-22T12:55:06.165Z,5.70
2019-03-22T13:00:05.598Z,8.23
2019-03-22T13:05:01.716Z,6.90
2019-03-22T13:10:01.308Z,5.50
2019-03-22T13:14:59.665Z,5.60
2019-03-22T13:19:55.786Z,5.40
2019-03-22T13:24:57.520Z,6.40
2019-03-22T13:29:55.891Z,6.47
2019-03-22T13:34:51.893Z,7.73
2019-03-22T13:39:47.830Z,7.50
2019-03-22T13:44:43.852Z,6.83
2019-03-22T13:49:39.776Z,7.60
2019-03-22T13:54:36.557Z,8.40
2019-03-22T13:59:32.455Z,6.93
2019-03-22T14:04:28.379Z,7.97
2019-03-22T14:09:24.301Z,7.03
2019-03-22T14:14:20.299Z,7.30
2019-03-22T14:19:16.221Z,8.23
2019-03-22T14:24:20.899Z,9.00
2019-03-22T14:29:16.911Z,9.03
2019-03-22T14:34:12.835Z,9.37
2019-03-22T14:39:08.855Z,8.63
2019-03-22T14:44:04.877Z,8.40
2019-03-22T14:49:00.906Z,7.57
2019-03-22T14:54:03.972Z,9.00
2019-03-22T14:58:59.990Z,8.70
2019-03-22T15:03:55.917Z,7.10
2019-03-22T15:08:51.857Z,5.30
2019-03-22T15:13:52.465Z,4.30
2019-03-22T15:19:02.421Z,3.57
2019-03-22T15:24:29.598Z,4.00
2019-03-22T15:29:39.817Z,4.00
2019-03-22T15:34:55.932Z,4.23
2019-03-22T15:39:56.725Z,4.40
2019-03-22T15:44:52.791Z,5.30
2019-03-22T15:49:48.821Z,4.00
2019-03-22T15:54:45.352Z,4.80
2019-03-22T15:59:41.445Z,5.17
2019-03-22T16:04:37.369Z,5.50
2019-03-22T16:09:33.287Z,5.20
2019-03-22T16:14:29.239Z,4.63
2019-03-22T16:19:25.161Z,5.60
2019-03-22T16:24:25.000Z,4.67
2019-03-22T16:29:20.919Z,5.10
2019-03-22T16:34:16.846Z,5.50
2019-03-22T16:39:12.760Z,7.17
2019-03-22T16:44:08.687Z,7.27
2019-03-22T16:49:04.620Z,7.53
2019-03-22T16:54:00.637Z,9.13
2019-03-22T16:58:56.563Z,9.30
2019-03-22T17:03:52.582Z,7.10
2019-03-22T17:08:48.500Z,6.67
2019-03-22T17:13:44.430Z,7.43
2019-03-22T17:18:40.361Z,5.60
2019-03-22T17:23:36.280Z,5.23
2019-03-22T17:28:32.210Z,6.27
2019-03-22T17:33:28.338Z,6.10
2019-03-22T17:38:24.262Z,5.97
2019-03-22T17:43:20.219Z,5.93
2019-03-22T17:48:16.141Z,6.00
2019-03-22T17:53:12.061Z,4.70
2019-03-22T17:58:08.009Z,5.47
2019-03-22T18:03:03.932Z,4.90
2019-03-22T18:07:59.847Z,4.30
2019-03-22T18:12:55.783Z,6.70
2019-03-22T18:17:51.710Z,5.97
2019-03-22T18:22:47.635Z,4.97
2019-03-22T18:27:43.567Z,5.10
2019-03-22T18:32:39.495Z,4.53
2019-03-22T18:37:35.531Z,4.50
2019-03-22T18:42:31.453Z,4.47
2019-03-22T18:47:27.668Z,5.20
2019-03-22T18:52:23.622Z,5.73
2019-03-22T18:57:19.632Z,4.80
2019-03-22T19:02:15.651Z,4.83
2019-03-22T19:07:11.653Z,4.50
2019-03-22T19:12:07.726Z,5.50
2019-03-22T19:17:03.672Z,4.53
2019-03-22T19:22:01.083Z,3.47
2019-03-22T19:26:57.980Z,5.20
2019-03-22T19:32:00.596Z,4.30
2019-03-22T19:37:02.349Z,5.27
2019-03-22T19:42:05.827Z,4.77
2019-03-22T19:47:07.108Z,5.13
2019-03-22T19:52:07.571Z,5.07
2019-03-22T20:02:27.621Z,5.70
2019-03-22T20:07:31.523Z,5.17
2019-03-22T20:12:29.133Z,5.87
2019-03-22T20:17:30.259Z,5.47
2019-03-22T20:22:35.544Z,5.33
2019-03-22T20:27:34.211Z,6.60
2019-03-22T20:32:33.159Z,5.13
2019-03-22T20:42:51.434Z,6.73
2019-03-22T20:47:48.357Z,7.03
2019-03-22T20:52:50.896Z,5.80
2019-03-22T20:57:51.231Z,6.60
2019-03-22T21:02:50.137Z,6.90
2019-03-22T21:07:49.038Z,5.90
2019-03-22T21:12:49.799Z,7.10
2019-03-22T21:17:53.835Z,6.43
2019-03-22T21:22:55.646Z,6.37
2019-03-22T21:27:56.067Z,6.93
2019-03-22T21:32:55.765Z,6.80
2019-03-22T21:37:53.936Z,6.40
2019-03-22T21:42:51.439Z,6.60
2019-03-22T21:47:49.213Z,6.80
2019-03-22T21:52:46.404Z,6.60
2019-03-22T21:57:43.664Z,6.57
2019-03-22T22:02:40.614Z,6.97
2019-03-22T22:07:38.533Z,7.93
2019-03-22T22:12:35.493Z,6.70
2019-03-22T22:17:31.536Z,6.43
2019-03-22T22:22:27.452Z,7.07
2019-03-22T22:27:23.379Z,7.63
2019-03-22T22:32:19.853Z,7.50
2019-03-22T22:37:15.776Z,8.37
2019-03-22T22:42:11.750Z,8.17
2019-03-22T22:47:07.785Z,7.37
2019-03-22T22:52:03.718Z,7.80
2019-03-22T22:56:59.695Z,8.47
2019-03-22T23:01:55.821Z,7.83
2019-03-22T23:06:51.842Z,9.23
2019-03-22T23:11:47.770Z,9.50
2019-03-22T23:16:43.706Z,9.37
2019-03-22T23:21:39.751Z,7.37
2019-03-22T23:26:35.687Z,7.37
2019-03-22T23:31:31.639Z,7.67
2019-03-22T23:36:27.575Z,8.20
2019-03-22T23:41:23.511Z,8.33
2019-03-22T23:46:19.454Z,7.00
2019-03-22T23:51:15.483Z,8.00
2019-03-22T23:56:11.413Z,6.60
